KSMS

Sumter Airport

Sumter, South Carolina, USA
METAR KSMS 191455Z AUTO VRB03KT 9SM CLR 04/M06 A3029 RMK AO2
Observed Flight Rules
Jan-19 @ 14:55 UTC (33 minutes ago) Visual Flight Rules
Wind Visibility Clouds
Variable at 3 knots 9 miles
  • Clear skies
Temperatures Readings
Current 4°C / 39°F
Dewpoint -6°C / 21°F
Humidity 48%
Altimeter 30.29" Hg
Pressure 1026 hPa
Elevation 56
METAR KSMS 191455Z AUTO VRB03KT 9SM CLR 04/M06 A3029 RMK AO2
Observed Flight Rules
Jan-19 @ 14:55 UTC
(33 minutes ago)
VFR
Wind Visibility
Variable at 3 knots 9 miles
Clouds
  • Clear skies
Temperature Dewpoint
4°C / 39°F -6°C / 21°F
Humidity Altimeter Pressure
48% 30.29" Hg 1026 hPa